sensor_id;sensor_type;location;lat;lon;timestamp;pressure;altitude;pressure_sealevel;temperature;humidity
74065;BME280;62421;51.412;5.432;2023-03-12T00:01:17;101046.47;;;0.56;100.00
74065;BME280;62421;51.412;5.432;2023-03-12T00:03:43;101044.66;;;0.58;100.00
74065;BME280;62421;51.412;5.432;2023-03-12T00:06:09;101050.75;;;0.60;100.00
74065;BME280;62421;51.412;5.432;2023-03-12T00:08:34;101044.59;;;0.61;100.00
74065;BME280;62421;51.412;5.432;2023-03-12T00:11:04;101042.75;;;0.65;100.00
74065;BME280;62421;51.412;5.432;2023-03-12T00:13:30;101040.97;;;0.65;100.00
74065;BME280;62421;51.412;5.432;2023-03-12T00:15:55;101048.91;;;0.65;100.00
74065;BME280;62421;51.412;5.432;2023-03-12T00:18:21;101058.53;;;0.66;100.00
74065;BME280;62421;51.412;5.432;2023-03-12T00:20:52;101044.44;;;0.67;100.00
74065;BME280;62421;51.412;5.432;2023-03-12T00:23:18;101042.66;;;0.68;100.00
74065;BME280;62421;51.412;5.432;2023-03-12T00:25:43;101023.28;;;0.67;100.00
74065;BME280;62421;51.412;5.432;2023-03-12T00:28:09;101022.34;;;0.70;100.00
74065;BME280;62421;51.412;5.432;2023-03-12T00:30:34;101019.66;;;0.71;100.00
74065;BME280;62421;51.412;5.432;2023-03-12T00:32:59;101011.66;;;0.73;100.00
74065;BME280;62421;51.412;5.432;2023-03-12T00:35:25;101014.28;;;0.74;100.00
74065;BME280;62421;51.412;5.432;2023-03-12T00:37:50;101000.19;;;0.75;100.00
74065;BME280;62421;51.412;5.432;2023-03-12T00:40:15;100991.34;;;0.75;100.00
74065;BME280;62421;51.412;5.432;2023-03-12T00:42:41;100991.31;;;0.76;100.00
74065;BME280;62421;51.412;5.432;2023-03-12T00:45:07;100999.22;;;0.78;100.00
74065;BME280;62421;51.412;5.432;2023-03-12T00:47:32;100999.22;;;0.78;100.00
74065;BME280;62421;51.412;5.432;2023-03-12T00:49:57;101004.44;;;0.79;100.00
74065;BME280;62421;51.412;5.432;2023-03-12T00:52:23;100991.22;;;0.79;100.00
74065;BME280;62421;51.412;5.432;2023-03-12T00:54:48;100996.47;;;0.81;100.00
74065;BME280;62421;51.412;5.432;2023-03-12T00:57:14;100992.00;;;0.83;100.00
74065;BME280;62421;51.412;5.432;2023-03-12T00:59:39;100993.81;;;0.82;100.00
74065;BME280;62421;51.412;5.432;2023-03-12T01:02:06;100987.59;;;0.84;100.00
74065;BME280;62421;51.412;5.432;2023-03-12T01:04:32;100990.19;;;0.85;100.00
74065;BME280;62421;51.412;5.432;2023-03-12T01:06:57;100987.53;;;0.87;100.00
74065;BME280;62421;51.412;5.432;2023-03-12T01:09:22;100982.16;;;0.88;100.00
74065;BME280;62421;51.412;5.432;2023-03-12T01:11:48;100981.25;;;0.91;100.00
74065;BME280;62421;51.412;5.432;2023-03-12T01:14:13;100982.09;;;0.91;100.00
74065;BME280;62421;51.412;5.432;2023-03-12T01:16:38;100970.66;;;0.91;100.00
74065;BME280;62421;51.412;5.432;2023-03-12T01:19:04;100970.59;;;0.92;100.00
74065;BME280;62421;51.412;5.432;2023-03-12T01:21:29;100966.13;;;0.94;100.00
74065;BME280;62421;51.412;5.432;2023-03-12T01:23:56;100960.81;;;0.96;100.00
74065;BME280;62421;51.412;5.432;2023-03-12T01:26:21;100959.09;;;0.95;100.00
74065;BME280;62421;51.412;5.432;2023-03-12T01:28:47;100965.25;;;0.95;100.00
74065;BME280;62421;51.412;5.432;2023-03-12T01:31:15;100958.13;;;0.97;100.00
74065;BME280;62421;51.412;5.432;2023-03-12T01:33:41;100957.28;;;0.97;100.00
74065;BME280;62421;51.412;5.432;2023-03-12T01:36:19;100958.16;;;0.96;100.00
74065;BME280;62421;51.412;5.432;2023-03-12T01:38:44;100959.00;;;0.98;100.00
74065;BME280;62421;51.412;5.432;2023-03-12T01:41:10;100959.00;;;0.98;100.00
74065;BME280;62421;51.412;5.432;2023-03-12T01:43:37;100949.28;;;0.98;100.00
74065;BME280;62421;51.412;5.432;2023-03-12T01:48:39;100965.09;;;1.00;100.00
74065;BME280;62421;51.412;5.432;2023-03-12T01:51:08;100949.28;;;0.98;100.00
74065;BME280;62421;51.412;5.432;2023-03-12T01:53:35;100938.69;;;0.98;100.00
74065;BME280;62421;51.412;5.432;2023-03-12T01:56:02;100941.31;;;1.00;100.00
74065;BME280;62421;51.412;5.432;2023-03-12T01:58:29;100937.81;;;0.99;100.00
74065;BME280;62421;51.412;5.432;2023-03-12T02:00:55;100937.72;;;1.01;100.00
74065;BME280;62421;51.412;5.432;2023-03-12T02:03:21;100930.72;;;1.00;100.00
74065;BME280;62421;51.412;5.432;2023-03-12T02:05:51;100928.06;;;1.01;100.00
74065;BME280;62421;51.412;5.432;2023-03-12T02:08:18;100931.56;;;1.02;100.00
74065;BME280;62421;51.412;5.432;2023-03-12T02:10:44;100926.25;;;1.02;100.00
74065;BME280;62421;51.412;5.432;2023-03-12T02:13:10;100917.41;;;1.03;100.00
74065;BME280;62421;51.412;5.432;2023-03-12T02:15:36;100913.91;;;1.02;100.00
74065;BME280;62421;51.412;5.432;2023-03-12T02:18:08;100905.94;;;1.04;100.00
74065;BME280;62421;51.412;5.432;2023-03-12T02:21:18;100910.34;;;1.04;99.34
74065;BME280;62421;51.412;5.432;2023-03-12T02:23:29;100902.44;;;1.04;99.58
74065;BME280;62421;51.412;5.432;2023-03-12T02:25:56;100898.00;;;1.04;100.00
74065;BME280;62421;51.412;5.432;2023-03-12T02:28:26;100891.84;;;1.04;100.00
74065;BME280;62421;51.412;5.432;2023-03-12T02:30:56;100889.09;;;1.07;99.49
74065;BME280;62421;51.412;5.432;2023-03-12T02:33:22;100892.59;;;1.07;100.00
74065;BME280;62421;51.412;5.432;2023-03-12T02:35:48;100883.81;;;1.07;100.00
74065;BME280;62421;51.412;5.432;2023-03-12T02:38:45;100888.13;;;1.09;100.00
74065;BME280;62421;51.412;5.432;2023-03-12T02:41:30;100895.22;;;1.09;100.00
74065;BME280;62421;51.412;5.432;2023-03-12T02:44:10;100884.59;;;1.10;98.95
74065;BME280;62421;51.412;5.432;2023-03-12T02:46:42;100905.69;;;1.12;99.81
74065;BME280;62421;51.412;5.432;2023-03-12T02:49:09;100899.50;;;1.13;100.00
74065;BME280;62421;51.412;5.432;2023-03-12T02:51:37;100892.38;;;1.15;100.00
74065;BME280;62421;51.412;5.432;2023-03-12T02:54:02;100889.75;;;1.15;100.00
74065;BME280;62421;51.412;5.432;2023-03-12T02:56:28;100901.13;;;1.17;100.00
74065;BME280;62421;51.412;5.432;2023-03-12T02:58:54;100905.50;;;1.18;100.00
74065;BME280;62421;51.412;5.432;2023-03-12T03:01:19;100896.72;;;1.17;100.00
74065;BME280;62421;51.412;5.432;2023-03-12T03:03:45;100902.00;;;1.17;100.00
74065;BME280;62421;51.412;5.432;2023-03-12T03:06:11;100902.00;;;1.17;100.00
74065;BME280;62421;51.412;5.432;2023-03-12T03:08:37;100894.06;;;1.17;100.00
74065;BME280;62421;51.412;5.432;2023-03-12T03:11:03;100888.78;;;1.17;100.00
74065;BME280;62421;51.412;5.432;2023-03-12T03:13:29;100895.84;;;1.17;100.00
74065;BME280;62421;51.412;5.432;2023-03-12T03:15:54;100887.06;;;1.16;100.00
74065;BME280;62421;51.412;5.432;2023-03-12T03:18:23;100886.13;;;1.17;100.00
74065;BME280;62421;51.412;5.432;2023-03-12T03:20:56;100879.97;;;1.17;100.00
74065;BME280;62421;51.412;5.432;2023-03-12T03:23:22;100889.69;;;1.16;100.00
74065;BME280;62421;51.412;5.432;2023-03-12T03:25:47;100872.09;;;1.15;100.00
74065;BME280;62421;51.412;5.432;2023-03-12T03:28:13;100870.28;;;1.16;100.00
74065;BME280;62421;51.412;5.432;2023-03-12T03:30:38;100865.00;;;1.16;100.00
74065;BME280;62421;51.412;5.432;2023-03-12T03:33:03;100870.28;;;1.16;100.00
74065;BME280;62421;51.412;5.432;2023-03-12T03:35:29;100861.50;;;1.15;100.00
74065;BME280;62421;51.412;5.432;2023-03-12T03:37:54;100867.66;;;1.16;100.00
74065;BME280;62421;51.412;5.432;2023-03-12T03:40:19;100870.28;;;1.16;100.00
74065;BME280;62421;51.412;5.432;2023-03-12T03:42:45;100865.94;;;1.15;100.00
74065;BME280;62421;51.412;5.432;2023-03-12T03:45:10;100867.72;;;1.14;100.00
74065;BME280;62421;51.412;5.432;2023-03-12T03:47:36;100858.84;;;1.15;100.00
74065;BME280;62421;51.412;5.432;2023-03-12T03:50:02;100862.38;;;1.16;100.00
74065;BME280;62421;51.412;5.432;2023-03-12T03:52:28;100852.72;;;1.15;100.00
74065;BME280;62421;51.412;5.432;2023-03-12T03:54:53;100835.91;;;1.16;100.00
74065;BME280;62421;51.412;5.432;2023-03-12T03:57:21;100827.16;;;1.14;100.00
74065;BME280;62421;51.412;5.432;2023-03-12T03:59:46;100818.41;;;1.12;100.00
74065;BME280;62421;51.412;5.432;2023-03-12T04:02:11;100810.53;;;1.10;100.00
74065;BME280;62421;51.412;5.432;2023-03-12T04:04:37;100818.50;;;1.09;100.00
74065;BME280;62421;51.412;5.432;2023-03-12T04:07:02;100813.25;;;1.07;100.00
74065;BME280;62421;51.412;5.432;2023-03-12T04:09:27;100817.72;;;1.05;100.00
74065;BME280;62421;51.412;5.432;2023-03-12T04:11:54;100828.31;;;1.05;100.00
74065;BME280;62421;51.412;5.432;2023-03-12T04:14:20;100815.91;;;1.07;100.00
74065;BME280;62421;51.412;5.432;2023-03-12T04:16:45;100816.72;;;1.09;100.00
74065;BME280;62421;51.412;5.432;2023-03-12T04:19:10;100824.66;;;1.09;100.00
74065;BME280;62421;51.412;5.432;2023-03-12T04:21:36;100809.63;;;1.11;100.00
74065;BME280;62421;51.412;5.432;2023-03-12T04:24:04;100802.53;;;1.12;100.00
74065;BME280;62421;51.412;5.432;2023-03-12T04:26:29;100804.25;;;1.14;100.00
74065;BME280;62421;51.412;5.432;2023-03-12T04:28:55;100796.25;;;1.16;100.00
74065;BME280;62421;51.412;5.432;2023-03-12T04:31:20;100800.63;;;1.17;100.00
74065;BME280;62421;51.412;5.432;2023-03-12T04:33:46;100805.88;;;1.18;100.00
74065;BME280;62421;51.412;5.432;2023-03-12T04:36:11;100791.72;;;1.19;100.00
74065;BME280;62421;51.412;5.432;2023-03-12T04:38:38;100787.25;;;1.21;100.00
74065;BME280;62421;51.412;5.432;2023-03-12T04:41:06;100774.84;;;1.23;100.00
74065;BME280;62421;51.412;5.432;2023-03-12T04:43:32;100779.16;;;1.26;100.00
74065;BME280;62421;51.412;5.432;2023-03-12T04:45:58;100776.47;;;1.28;100.00
74065;BME280;62421;51.412;5.432;2023-03-12T04:48:24;100756.16;;;1.28;100.00
74065;BME280;62421;51.412;5.432;2023-03-12T04:50:50;100767.56;;;1.30;100.00
74065;BME280;62421;51.412;5.432;2023-03-12T04:53:16;100771.88;;;1.33;100.00
74065;BME280;62421;51.412;5.432;2023-03-12T04:55:41;100780.69;;;1.33;100.00
74065;BME280;62421;51.412;5.432;2023-03-12T04:58:07;100778.00;;;1.35;100.00
74065;BME280;62421;51.412;5.432;2023-03-12T05:00:32;100772.66;;;1.36;100.00
74065;BME280;62421;51.412;5.432;2023-03-12T05:02:58;100767.31;;;1.38;100.00
74065;BME280;62421;51.412;5.432;2023-03-12T05:05:23;100758.47;;;1.39;100.00
74065;BME280;62421;51.412;5.432;2023-03-12T05:07:49;100749.63;;;1.40;100.00
74065;BME280;62421;51.412;5.432;2023-03-12T05:10:14;100747.78;;;1.42;100.00
74065;BME280;62421;51.412;5.432;2023-03-12T05:12:40;100733.66;;;1.41;100.00
74065;BME280;62421;51.412;5.432;2023-03-12T05:15:05;100736.31;;;1.41;100.00
74065;BME280;62421;51.412;5.432;2023-03-12T05:17:31;100728.38;;;1.41;100.00
74065;BME280;62421;51.412;5.432;2023-03-12T05:19:56;100725.72;;;1.41;100.00
74065;BME280;62421;51.412;5.432;2023-03-12T05:22:22;100718.72;;;1.40;100.00
74065;BME280;62421;51.412;5.432;2023-03-12T05:24:47;100710.78;;;1.40;100.00
74065;BME280;62421;51.412;5.432;2023-03-12T05:27:12;100720.41;;;1.43;100.00
74065;BME280;62421;51.412;5.432;2023-03-12T05:29:38;100724.75;;;1.44;100.00
74065;BME280;62421;51.412;5.432;2023-03-12T05:32:03;100727.34;;;1.46;100.00
74065;BME280;62421;51.412;5.432;2023-03-12T05:34:30;100724.66;;;1.47;100.00
74065;BME280;62421;51.412;5.432;2023-03-12T05:36:58;100725.53;;;1.48;100.00
74065;BME280;62421;51.412;5.432;2023-03-12T05:39:26;100729.84;;;1.50;100.00
74065;BME280;62421;51.412;5.432;2023-03-12T05:41:52;100725.47;;;1.49;100.00
74065;BME280;62421;51.412;5.432;2023-03-12T05:44:24;100729.81;;;1.52;100.00
74065;BME280;62421;51.412;5.432;2023-03-12T05:46:51;100718.31;;;1.53;100.00
74065;BME280;62421;51.412;5.432;2023-03-12T05:49:17;100709.41;;;1.55;100.00
74065;BME280;62421;51.412;5.432;2023-03-12T05:51:43;100699.66;;;1.56;100.00
74065;BME280;62421;51.412;5.432;2023-03-12T05:54:09;100705.78;;;1.58;100.00
74065;BME280;62421;51.412;5.432;2023-03-12T05:56:37;100697.78;;;1.59;100.00
74065;BME280;62421;51.412;5.432;2023-03-12T05:59:03;100702.16;;;1.60;100.00
74065;BME280;62421;51.412;5.432;2023-03-12T06:01:29;100701.13;;;1.64;100.00
74065;BME280;62421;51.412;5.432;2023-03-12T06:03:55;100701.06;;;1.66;100.00
74065;BME280;62421;51.412;5.432;2023-03-12T06:06:21;100706.28;;;1.68;100.00
74065;BME280;62421;51.412;5.432;2023-03-12T06:08:47;100706.19;;;1.71;100.00
74065;BME280;62421;51.412;5.432;2023-03-12T06:11:14;100707.06;;;1.71;100.00
74065;BME280;62421;51.412;5.432;2023-03-12T06:13:40;100715.81;;;1.73;100.00
74065;BME280;62421;51.412;5.432;2023-03-12T06:16:15;100702.53;;;1.75;100.00
74065;BME280;62421;51.412;5.432;2023-03-12T06:18:41;100711.28;;;1.77;100.00
74065;BME280;62421;51.412;5.432;2023-03-12T06:21:12;100712.94;;;1.79;100.00
74065;BME280;62421;51.412;5.432;2023-03-12T06:23:38;100708.50;;;1.80;100.00
74065;BME280;62421;51.412;5.432;2023-03-12T06:26:04;100717.22;;;1.83;100.00
74065;BME280;62421;51.412;5.432;2023-03-12T06:28:30;100724.31;;;1.83;100.00
74065;BME280;62421;51.412;5.432;2023-03-12T06:30:55;100725.16;;;1.83;100.00
74065;BME280;62421;51.412;5.432;2023-03-12T06:33:21;100729.47;;;1.86;100.00
74065;BME280;62421;51.412;5.432;2023-03-12T06:35:46;100720.59;;;1.87;100.00
74065;BME280;62421;51.412;5.432;2023-03-12T06:38:12;100715.25;;;1.89;100.00
74065;BME280;62421;51.412;5.432;2023-03-12T06:40:37;100717.88;;;1.90;100.00
74065;BME280;62421;51.412;5.432;2023-03-12T06:43:02;100709.91;;;1.90;100.00
74065;BME280;62421;51.412;5.432;2023-03-12T06:45:28;100708.06;;;1.92;100.00
74065;BME280;62421;51.412;5.432;2023-03-12T06:47:53;100708.75;;;1.97;100.00
74065;BME280;62421;51.412;5.432;2023-03-12T06:50:19;100694.50;;;2.01;100.00
74065;BME280;62421;51.412;5.432;2023-03-12T06:52:44;100680.16;;;2.07;100.00
74065;BME280;62421;51.412;5.432;2023-03-12T06:55:09;100673.84;;;2.11;100.00
74065;BME280;62421;51.412;5.432;2023-03-12T06:57:35;100674.56;;;2.15;100.00
74065;BME280;62421;51.412;5.432;2023-03-12T07:00:00;100678.97;;;2.16;100.00
74065;BME280;62421;51.412;5.432;2023-03-12T07:02:26;100678.03;;;2.17;100.00
74065;BME280;62421;51.412;5.432;2023-03-12T07:04:51;100673.59;;;2.17;100.00
74065;BME280;62421;51.412;5.432;2023-03-12T07:07:17;100671.69;;;2.21;100.00
74065;BME280;62421;51.412;5.432;2023-03-12T07:09:44;100663.50;;;2.27;100.00
74065;BME280;62421;51.412;5.432;2023-03-12T07:12:09;100673.06;;;2.31;100.00
74065;BME280;62421;51.412;5.432;2023-03-12T07:14:34;100667.59;;;2.36;100.00
74065;BME280;62421;51.412;5.432;2023-03-12T07:17:00;100673.75;;;2.36;100.00
74065;BME280;62421;51.412;5.432;2023-03-12T07:19:27;100671.97;;;2.37;100.00
74065;BME280;62421;51.412;5.432;2023-03-12T07:21:55;100675.47;;;2.37;100.00
74065;BME280;62421;51.412;5.432;2023-03-12T07:24:20;100680.78;;;2.37;100.00
74065;BME280;62421;51.412;5.432;2023-03-12T07:26:45;100673.63;;;2.39;100.00
74065;BME280;62421;51.412;5.432;2023-03-12T07:29:11;100682.41;;;2.41;100.00
74065;BME280;62421;51.412;5.432;2023-03-12T07:31:36;100681.34;;;2.45;100.00
74065;BME280;62421;51.412;5.432;2023-03-12T07:34:02;100676.72;;;2.51;100.00
74065;BME280;62421;51.412;5.432;2023-03-12T07:36:27;100682.69;;;2.56;100.00
74065;BME280;62421;51.412;5.432;2023-03-12T07:38:54;100683.50;;;2.58;100.00
74065;BME280;62421;51.412;5.432;2023-03-12T07:41:20;100688.66;;;2.62;100.00
74065;BME280;62421;51.412;5.432;2023-03-12T07:43:45;100690.22;;;2.66;100.00
74065;BME280;62421;51.412;5.432;2023-03-12T07:46:11;100694.56;;;2.69;100.00
74065;BME280;62421;51.412;5.432;2023-03-12T07:48:37;100691.91;;;2.69;100.00
74065;BME280;62421;51.412;5.432;2023-03-12T07:51:03;100685.63;;;2.72;100.00
74065;BME280;62421;51.412;5.432;2023-03-12T07:53:29;100690.88;;;2.73;100.00
74065;BME280;62421;51.412;5.432;2023-03-12T07:55:54;100682.78;;;2.76;100.00
74065;BME280;62421;51.412;5.432;2023-03-12T07:58:19;100682.66;;;2.79;100.00
74065;BME280;62421;51.412;5.432;2023-03-12T08:00:45;100682.59;;;2.81;100.00
74065;BME280;62421;51.412;5.432;2023-03-12T08:03:16;100685.06;;;2.85;100.00
74065;BME280;62421;51.412;5.432;2023-03-12T08:05:42;100680.44;;;2.91;100.00
74065;BME280;62421;51.412;5.432;2023-03-12T08:08:08;100681.09;;;2.96;100.00
74065;BME280;62421;51.412;5.432;2023-03-12T08:10:33;100685.38;;;3.00;100.00
74065;BME280;62421;51.412;5.432;2023-03-12T08:12:59;100679.88;;;3.04;100.00
74065;BME280;62421;51.412;5.432;2023-03-12T08:15:24;100680.47;;;3.11;100.00
74065;BME280;62421;51.412;5.432;2023-03-12T08:17:49;100674.97;;;3.16;100.00
74065;BME280;62421;51.412;5.432;2023-03-12T08:20:15;100685.47;;;3.19;100.00
74065;BME280;62421;51.412;5.432;2023-03-12T08:22:41;100682.56;;;3.25;100.00
74065;BME280;62421;51.412;5.432;2023-03-12T08:25:07;100674.19;;;3.34;100.00
74065;BME280;62421;51.412;5.432;2023-03-12T08:27:33;100680.16;;;3.39;100.00
74065;BME280;62421;51.412;5.432;2023-03-12T08:29:59;100680.84;;;3.44;100.00
74065;BME280;62421;51.412;5.432;2023-03-12T08:32:24;100684.88;;;3.53;100.00
74065;BME280;62421;51.412;5.432;2023-03-12T08:34:50;100687.34;;;3.58;100.00
74065;BME280;62421;51.412;5.432;2023-03-12T08:37:15;100696.00;;;3.61;100.00
74065;BME280;62421;51.412;5.432;2023-03-12T08:39:40;100702.06;;;3.65;100.00
74065;BME280;62421;51.412;5.432;2023-03-12T08:42:06;100691.19;;;3.71;100.00
74065;BME280;62421;51.412;5.432;2023-03-12T08:44:32;100703.34;;;3.77;100.00
74065;BME280;62421;51.412;5.432;2023-03-12T08:46:57;100703.13;;;3.81;100.00
74065;BME280;62421;51.412;5.432;2023-03-12T08:49:22;100708.09;;;3.89;100.00
74065;BME280;62421;51.412;5.432;2023-03-12T08:51:48;100712.28;;;3.95;100.00
74065;BME280;62421;51.412;5.432;2023-03-12T08:54:16;100712.06;;;3.99;100.00
74065;BME280;62421;51.412;5.432;2023-03-12T08:56:41;100715.41;;;4.04;100.00
74065;BME280;62421;51.412;5.432;2023-03-12T08:59:11;100721.34;;;4.09;100.00
74065;BME280;62421;51.412;5.432;2023-03-12T09:01:37;100715.81;;;4.14;100.00
74065;BME280;62421;51.412;5.432;2023-03-12T09:04:04;100717.25;;;4.21;100.00
74065;BME280;62421;51.412;5.432;2023-03-12T09:06:30;100713.47;;;4.27;100.00
74065;BME280;62421;51.412;5.432;2023-03-12T09:08:55;100714.69;;;4.39;100.00
74065;BME280;62421;51.412;5.432;2023-03-12T09:11:21;100715.88;;;4.52;100.00
74065;BME280;62421;51.412;5.432;2023-03-12T09:13:47;100723.19;;;4.66;100.00
74065;BME280;62421;51.412;5.432;2023-03-12T09:16:12;100713.84;;;4.76;100.00
74065;BME280;62421;51.412;5.432;2023-03-12T09:18:37;100725.66;;;4.88;100.00
74065;BME280;62421;51.412;5.432;2023-03-12T09:21:03;100719.53;;;5.05;100.00
74065;BME280;62421;51.412;5.432;2023-03-12T09:23:29;100717.97;;;5.18;100.00
74065;BME280;62421;51.412;5.432;2023-03-12T09:25:55;100721.00;;;5.29;100.00
74065;BME280;62421;51.412;5.432;2023-03-12T09:28:21;100712.34;;;5.42;100.00
74065;BME280;62421;51.412;5.432;2023-03-12T09:30:46;100709.09;;;5.54;100.00
74065;BME280;62421;51.412;5.432;2023-03-12T09:33:12;100712.84;;;5.67;100.00
74065;BME280;62421;51.412;5.432;2023-03-12T09:35:39;100716.69;;;5.79;100.00
74065;BME280;62421;51.412;5.432;2023-03-12T09:38:05;100716.97;;;5.90;100.00
74065;BME280;62421;51.412;5.432;2023-03-12T09:40:32;100712.97;;;5.99;100.00
74065;BME280;62421;51.412;5.432;2023-03-12T09:43:04;100717.56;;;6.13;100.00
74065;BME280;62421;51.412;5.432;2023-03-12T09:45:35;100717.63;;;6.29;100.00
74065;BME280;62421;51.412;5.432;2023-03-12T09:48:06;100711.25;;;6.47;100.00
74065;BME280;62421;51.412;5.432;2023-03-12T09:50:41;100728.50;;;6.57;100.00
74065;BME280;62421;51.412;5.432;2023-03-12T09:53:43;100717.75;;;6.59;100.00
74065;BME280;62421;51.412;5.432;2023-03-12T09:56:17;100736.41;;;6.59;100.00
74065;BME280;62421;51.412;5.432;2023-03-12T09:58:43;100738.91;;;6.62;100.00
74065;BME280;62421;51.412;5.432;2023-03-12T10:17:49;100741.84;;;6.89;100.00
74065;BME280;62421;51.412;5.432;2023-03-12T10:28:35;100740.91;;;7.06;100.00
74065;BME280;62421;51.412;5.432;2023-03-12T10:31:06;100741.84;;;7.05;100.00
74065;BME280;62421;51.412;5.432;2023-03-12T10:33:46;100746.25;;;7.06;100.00
74065;BME280;62421;51.412;5.432;2023-03-12T10:38:50;100745.88;;;7.28;100.00
74065;BME280;62421;51.412;5.432;2023-03-12T10:41:24;100745.25;;;7.39;100.00
74065;BME280;62421;51.412;5.432;2023-03-12T10:43:53;100740.31;;;7.47;100.00
74065;BME280;62421;51.412;5.432;2023-03-12T10:49:24;100744.25;;;7.56;100.00
74065;BME280;62421;51.412;5.432;2023-03-12T10:52:03;100741.59;;;7.56;100.00
74065;BME280;62421;51.412;5.432;2023-03-12T10:54:39;100737.00;;;7.58;100.00
74065;BME280;62421;51.412;5.432;2023-03-12T10:57:06;100743.81;;;7.64;100.00
74065;BME280;62421;51.412;5.432;2023-03-12T10:59:37;100744.19;;;7.72;100.00
74065;BME280;62421;51.412;5.432;2023-03-12T11:02:30;100741.00;;;7.81;100.00
74065;BME280;62421;51.412;5.432;2023-03-12T11:04:57;100730.97;;;7.99;100.00
74065;BME280;62421;51.412;5.432;2023-03-12T11:07:33;100738.53;;;8.21;100.00
74065;BME280;62421;51.412;5.432;2023-03-12T11:12:31;100752.53;;;8.40;100.00
74065;BME280;62421;51.412;5.432;2023-03-12T11:14:57;100743.94;;;8.50;100.00
74065;BME280;62421;51.412;5.432;2023-03-12T11:17:25;100746.00;;;8.73;100.00
74065;BME280;62421;51.412;5.432;2023-03-12T11:19:51;100740.59;;;8.88;100.00
74065;BME280;62421;51.412;5.432;2023-03-12T11:22:37;100758.50;;;8.87;100.00
74065;BME280;62421;51.412;5.432;2023-03-12T11:25:05;100754.84;;;8.88;100.00
74065;BME280;62421;51.412;5.432;2023-03-12T11:27:44;100748.72;;;8.86;100.00
74065;BME280;62421;51.412;5.432;2023-03-12T11:30:15;100763.94;;;8.86;100.00
74065;BME280;62421;51.412;5.432;2023-03-12T11:32:44;100756.44;;;8.78;100.00
74065;BME280;62421;51.412;5.432;2023-03-12T11:35:16;100748.78;;;8.72;100.00
74065;BME280;62421;51.412;5.432;2023-03-12T11:38:05;100748.19;;;8.81;100.00
74065;BME280;62421;51.412;5.432;2023-03-12T11:43:40;100749.19;;;9.34;100.00
74065;BME280;62421;51.412;5.432;2023-03-12T11:46:18;100760.84;;;9.60;100.00
74065;BME280;62421;51.412;5.432;2023-03-12T11:56:38;100746.16;;;9.66;100.00
74065;BME280;62421;51.412;5.432;2023-03-12T11:59:13;100751.25;;;9.83;100.00
74065;BME280;62421;51.412;5.432;2023-03-12T12:04:52;100735.78;;;10.25;100.00
74065;BME280;62421;51.412;5.432;2023-03-12T12:10:21;100732.03;;;10.41;100.00
74065;BME280;62421;51.412;5.432;2023-03-12T12:13:02;100721.22;;;10.42;100.00
74065;BME280;62421;51.412;5.432;2023-03-12T12:27:28;100700.44;;;10.94;100.00
74065;BME280;62421;51.412;5.432;2023-03-12T12:38:09;100680.63;;;11.08;100.00
74065;BME280;62421;51.412;5.432;2023-03-12T12:40:41;100682.44;;;11.07;100.00
74065;BME280;62421;51.412;5.432;2023-03-12T12:43:27;100688.06;;;11.04;100.00
74065;BME280;62421;51.412;5.432;2023-03-12T12:46:01;100687.75;;;10.96;100.00
74065;BME280;62421;51.412;5.432;2023-03-12T12:48:31;100682.56;;;11.06;100.00
74065;BME280;62421;51.412;5.432;2023-03-12T12:50:59;100675.59;;;11.27;100.00
74065;BME280;62421;51.412;5.432;2023-03-12T12:56:04;100680.06;;;11.51;98.54
74065;BME280;62421;51.412;5.432;2023-03-12T13:01:35;100668.22;;;11.54;96.04
74065;BME280;62421;51.412;5.432;2023-03-12T13:04:05;100660.88;;;11.44;95.09
74065;BME280;62421;51.412;5.432;2023-03-12T13:09:21;100641.13;;;11.33;96.40
74065;BME280;62421;51.412;5.432;2023-03-12T13:11:48;100654.44;;;11.23;96.33
74065;BME280;62421;51.412;5.432;2023-03-12T13:14:21;100655.84;;;11.16;95.26
74065;BME280;62421;51.412;5.432;2023-03-12T13:17:06;100650.47;;;11.16;95.63
74065;BME280;62421;51.412;5.432;2023-03-12T13:19:37;100634.50;;;11.14;93.68
74065;BME280;62421;51.412;5.432;2023-03-12T13:22:23;100647.66;;;11.06;92.99
74065;BME280;62421;51.412;5.432;2023-03-12T13:24:58;100648.00;;;11.01;92.96
74065;BME280;62421;51.412;5.432;2023-03-12T13:29:55;100644.38;;;10.90;91.09
74065;BME280;62421;51.412;5.432;2023-03-12T13:34:59;100648.31;;;10.97;91.72
74065;BME280;62421;51.412;5.432;2023-03-12T13:43:01;100626.50;;;11.37;90.81
74065;BME280;62421;51.412;5.432;2023-03-12T13:45:29;100619.69;;;11.55;90.14
74065;BME280;62421;51.412;5.432;2023-03-12T13:47:59;100618.03;;;11.77;90.99
74065;BME280;62421;51.412;5.432;2023-03-12T13:50:26;100610.97;;;11.98;87.94
74065;BME280;62421;51.412;5.432;2023-03-12T13:53:05;100613.53;;;12.00;87.99
74065;BME280;62421;51.412;5.432;2023-03-12T13:55:35;100622.22;;;11.92;88.15
74065;BME280;62421;51.412;5.432;2023-03-12T13:58:12;100632.69;;;11.84;87.96
74065;BME280;62421;51.412;5.432;2023-03-12T14:03:10;100637.81;;;11.76;86.68
74065;BME280;62421;51.412;5.432;2023-03-12T14:05:53;100635.59;;;11.69;86.66
74065;BME280;62421;51.412;5.432;2023-03-12T14:11:16;100649.19;;;11.68;88.25
74065;BME280;62421;51.412;5.432;2023-03-12T14:16:34;100641.25;;;11.78;87.50
74065;BME280;62421;51.412;5.432;2023-03-12T14:19:02;100650.53;;;11.74;87.00
74065;BME280;62421;51.412;5.432;2023-03-12T14:21:34;100660.44;;;11.73;87.74
74065;BME280;62421;51.412;5.432;2023-03-12T14:24:00;100654.69;;;11.66;87.74
74065;BME280;62421;51.412;5.432;2023-03-12T14:26:31;100657.09;;;11.58;86.93
74065;BME280;62421;51.412;5.432;2023-03-12T14:29:05;100655.59;;;11.43;87.44
74065;BME280;62421;51.412;5.432;2023-03-12T14:31:34;100665.94;;;11.25;88.98
74065;BME280;62421;51.412;5.432;2023-03-12T14:36:38;100671.28;;;11.01;89.41